Hauptseite
METAR-TAF:

METAR-TAF

Flughäfen :

Sapporo, Japan

Breite: 43-07N, Länge: 141-23E, Höhe: 8 m

Beobachtung

Neuester Wetterbericht von vor 7 Stunden und 50 Minuten, um 11:00 UTC
Wind 11 kt aus West/Nordwest
Temperatur 7°C
Luftfeuchtigkeit 87%
Luftdruck 1020 hPa
Sichtweite 10 km oder mehr
Leicht bewölkt in der Höhe von 1000 ft
Aufgelockert bewölkt in der Höhe von 23000 ft

METAR: RJCO 221100Z 29011KT 9999 FEW010 SCT230 07/05 Q1020

Zeit: 03:50 (18:50 UTC)


TAF: fehlend

Wetterbeobachtungen und Prognosen von mehr als 4000 Flughäfen (METAR und TAF Bericht).

Die verfügbaren Stationen werden durch gelbe und rote Markierungen auf der Karte dargestellt.

Führen Sie die Maus auf sie, um den Namen der Station zu sehen.

Darauf klicken, um die Beobachtung von Wetterbeobachtungen und Prognosen zu sehen.

Um die Karte zu ändern : klicken Sie auf den grünen Tasten mit einem schwarzen Kreuz Zum Vergrößern, auf den grünen Button mit einem Gedankenstrich zu verkleinern, oder auf die grünen Pfeile für benachbarte Karten.


METAR-TAF: